sensor_id;sensor_type;location;lat;lon;timestamp;temperature;humidity
47857;DHT22;33618;49.972;8.242;2023-05-13T00:02:24;11.40;99.90
47857;DHT22;33618;49.972;8.242;2023-05-13T00:04:51;11.40;99.90
47857;DHT22;33618;49.972;8.242;2023-05-13T00:07:18;11.30;99.90
47857;DHT22;33618;49.972;8.242;2023-05-13T00:09:45;11.40;99.90
47857;DHT22;33618;49.972;8.242;2023-05-13T00:12:12;11.30;99.90
47857;DHT22;33618;49.972;8.242;2023-05-13T00:14:39;11.30;99.90
47857;DHT22;33618;49.972;8.242;2023-05-13T00:17:06;11.30;99.90
47857;DHT22;33618;49.972;8.242;2023-05-13T00:19:33;11.30;99.90
47857;DHT22;33618;49.972;8.242;2023-05-13T00:22:00;11.30;99.90
47857;DHT22;33618;49.972;8.242;2023-05-13T00:24:27;11.30;99.90
47857;DHT22;33618;49.972;8.242;2023-05-13T00:26:54;11.40;99.90
47857;DHT22;33618;49.972;8.242;2023-05-13T00:29:21;11.40;99.90
47857;DHT22;33618;49.972;8.242;2023-05-13T00:31:48;11.40;99.90
47857;DHT22;33618;49.972;8.242;2023-05-13T00:34:15;11.50;99.90
47857;DHT22;33618;49.972;8.242;2023-05-13T00:36:44;11.50;99.90
47857;DHT22;33618;49.972;8.242;2023-05-13T00:39:11;11.60;99.90
47857;DHT22;33618;49.972;8.242;2023-05-13T00:41:39;11.60;99.90
47857;DHT22;33618;49.972;8.242;2023-05-13T00:44:05;11.70;99.90
47857;DHT22;33618;49.972;8.242;2023-05-13T00:46:33;11.70;99.90
47857;DHT22;33618;49.972;8.242;2023-05-13T00:49:00;11.80;99.90
47857;DHT22;33618;49.972;8.242;2023-05-13T00:51:27;11.80;99.90
47857;DHT22;33618;49.972;8.242;2023-05-13T00:53:57;11.80;99.90
47857;DHT22;33618;49.972;8.242;2023-05-13T00:56:25;11.80;99.90
47857;DHT22;33618;49.972;8.242;2023-05-13T00:58:52;11.90;99.90
47857;DHT22;33618;49.972;8.242;2023-05-13T01:01:46;11.80;99.90
47857;DHT22;33618;49.972;8.242;2023-05-13T01:12:39;11.80;99.90
47857;DHT22;33618;49.972;8.242;2023-05-13T01:15:19;11.80;99.90
47857;DHT22;33618;49.972;8.242;2023-05-13T01:18:14;11.70;99.90
47857;DHT22;33618;49.972;8.242;2023-05-13T01:20:44;11.70;99.90
47857;DHT22;33618;49.972;8.242;2023-05-13T01:23:12;11.80;99.90
47857;DHT22;33618;49.972;8.242;2023-05-13T01:25:39;11.80;99.90
47857;DHT22;33618;49.972;8.242;2023-05-13T01:28:07;11.80;99.90
47857;DHT22;33618;49.972;8.242;2023-05-13T01:30:35;11.70;99.90
47857;DHT22;33618;49.972;8.242;2023-05-13T01:33:02;11.70;99.90
47857;DHT22;33618;49.972;8.242;2023-05-13T01:35:32;11.80;99.90
47857;DHT22;33618;49.972;8.242;2023-05-13T01:38:00;11.80;99.90
47857;DHT22;33618;49.972;8.242;2023-05-13T01:40:28;11.80;99.90
47857;DHT22;33618;49.972;8.242;2023-05-13T01:42:59;11.80;99.90
47857;DHT22;33618;49.972;8.242;2023-05-13T01:45:29;11.90;99.90
47857;DHT22;33618;49.972;8.242;2023-05-13T01:47:59;11.90;99.90
47857;DHT22;33618;49.972;8.242;2023-05-13T01:50:26;11.90;99.90
47857;DHT22;33618;49.972;8.242;2023-05-13T01:52:52;11.90;99.90
47857;DHT22;33618;49.972;8.242;2023-05-13T01:55:19;11.90;99.90
47857;DHT22;33618;49.972;8.242;2023-05-13T01:57:46;11.90;99.90
47857;DHT22;33618;49.972;8.242;2023-05-13T02:00:14;11.90;99.90
47857;DHT22;33618;49.972;8.242;2023-05-13T02:02:41;11.80;99.90
47857;DHT22;33618;49.972;8.242;2023-05-13T02:05:08;11.80;99.90
47857;DHT22;33618;49.972;8.242;2023-05-13T02:07:35;11.80;99.90
47857;DHT22;33618;49.972;8.242;2023-05-13T02:10:02;11.80;99.90
47857;DHT22;33618;49.972;8.242;2023-05-13T02:12:29;11.80;99.90
47857;DHT22;33618;49.972;8.242;2023-05-13T02:14:56;11.80;99.90
47857;DHT22;33618;49.972;8.242;2023-05-13T02:17:23;11.80;99.90
47857;DHT22;33618;49.972;8.242;2023-05-13T02:19:50;11.90;99.90
47857;DHT22;33618;49.972;8.242;2023-05-13T02:22:17;11.90;99.90
47857;DHT22;33618;49.972;8.242;2023-05-13T02:24:44;11.90;99.90
47857;DHT22;33618;49.972;8.242;2023-05-13T02:27:11;12.00;99.90
47857;DHT22;33618;49.972;8.242;2023-05-13T02:29:41;11.90;99.90
47857;DHT22;33618;49.972;8.242;2023-05-13T02:32:08;12.00;99.90
47857;DHT22;33618;49.972;8.242;2023-05-13T02:34:35;12.00;99.90
47857;DHT22;33618;49.972;8.242;2023-05-13T02:37:02;12.00;99.90
47857;DHT22;33618;49.972;8.242;2023-05-13T02:39:29;12.00;99.90
47857;DHT22;33618;49.972;8.242;2023-05-13T02:41:56;12.00;99.90
47857;DHT22;33618;49.972;8.242;2023-05-13T02:44:23;12.00;99.90
47857;DHT22;33618;49.972;8.242;2023-05-13T02:46:50;11.90;99.90
47857;DHT22;33618;49.972;8.242;2023-05-13T02:49:17;11.90;99.90
47857;DHT22;33618;49.972;8.242;2023-05-13T02:51:44;11.90;99.90
47857;DHT22;33618;49.972;8.242;2023-05-13T02:54:12;11.90;99.90
47857;DHT22;33618;49.972;8.242;2023-05-13T02:56:39;11.90;99.90
47857;DHT22;33618;49.972;8.242;2023-05-13T02:59:05;11.90;99.90
47857;DHT22;33618;49.972;8.242;2023-05-13T03:01:33;11.80;99.90
47857;DHT22;33618;49.972;8.242;2023-05-13T03:04:00;11.70;99.90
47857;DHT22;33618;49.972;8.242;2023-05-13T03:06:27;11.60;99.90
47857;DHT22;33618;49.972;8.242;2023-05-13T03:08:54;11.60;99.90
47857;DHT22;33618;49.972;8.242;2023-05-13T03:11:21;11.70;99.90
47857;DHT22;33618;49.972;8.242;2023-05-13T03:13:48;11.70;99.90
47857;DHT22;33618;49.972;8.242;2023-05-13T03:16:15;11.70;99.90
47857;DHT22;33618;49.972;8.242;2023-05-13T03:18:42;11.70;99.90
47857;DHT22;33618;49.972;8.242;2023-05-13T03:21:09;11.60;99.90
47857;DHT22;33618;49.972;8.242;2023-05-13T03:23:36;11.60;99.90
47857;DHT22;33618;49.972;8.242;2023-05-13T03:26:03;11.60;99.90
47857;DHT22;33618;49.972;8.242;2023-05-13T03:28:30;11.50;99.90
47857;DHT22;33618;49.972;8.242;2023-05-13T03:30:57;11.50;99.90
47857;DHT22;33618;49.972;8.242;2023-05-13T03:33:24;11.50;99.90
47857;DHT22;33618;49.972;8.242;2023-05-13T03:35:51;11.50;99.90
47857;DHT22;33618;49.972;8.242;2023-05-13T03:38:17;11.50;99.90
47857;DHT22;33618;49.972;8.242;2023-05-13T03:40:44;11.40;99.90
47857;DHT22;33618;49.972;8.242;2023-05-13T03:43:11;11.40;99.90
47857;DHT22;33618;49.972;8.242;2023-05-13T03:45:38;11.40;99.90
47857;DHT22;33618;49.972;8.242;2023-05-13T03:48:05;11.40;99.90
47857;DHT22;33618;49.972;8.242;2023-05-13T03:50:32;11.50;99.90
47857;DHT22;33618;49.972;8.242;2023-05-13T03:53:00;11.60;99.90
47857;DHT22;33618;49.972;8.242;2023-05-13T03:55:27;11.70;99.90
47857;DHT22;33618;49.972;8.242;2023-05-13T03:57:54;11.80;99.90
47857;DHT22;33618;49.972;8.242;2023-05-13T04:00:21;11.80;99.90
47857;DHT22;33618;49.972;8.242;2023-05-13T04:02:49;11.80;99.90
47857;DHT22;33618;49.972;8.242;2023-05-13T04:05:16;11.80;99.90
47857;DHT22;33618;49.972;8.242;2023-05-13T04:07:43;11.70;99.90
47857;DHT22;33618;49.972;8.242;2023-05-13T04:10:10;11.70;99.90
47857;DHT22;33618;49.972;8.242;2023-05-13T04:12:41;11.70;99.90
47857;DHT22;33618;49.972;8.242;2023-05-13T04:15:08;11.70;99.90
47857;DHT22;33618;49.972;8.242;2023-05-13T04:17:35;11.80;99.90
47857;DHT22;33618;49.972;8.242;2023-05-13T04:20:02;11.80;99.90
47857;DHT22;33618;49.972;8.242;2023-05-13T04:22:29;11.80;99.90
47857;DHT22;33618;49.972;8.242;2023-05-13T04:24:56;11.70;99.90
47857;DHT22;33618;49.972;8.242;2023-05-13T04:27:23;11.70;99.90
47857;DHT22;33618;49.972;8.242;2023-05-13T04:29:50;11.70;99.90
47857;DHT22;33618;49.972;8.242;2023-05-13T04:32:17;11.70;99.90
47857;DHT22;33618;49.972;8.242;2023-05-13T04:34:48;11.70;99.90
47857;DHT22;33618;49.972;8.242;2023-05-13T04:37:15;11.60;99.90
47857;DHT22;33618;49.972;8.242;2023-05-13T04:39:44;11.70;99.90
47857;DHT22;33618;49.972;8.242;2023-05-13T04:42:13;11.70;99.90
47857;DHT22;33618;49.972;8.242;2023-05-13T04:44:40;11.70;99.90
47857;DHT22;33618;49.972;8.242;2023-05-13T04:47:07;11.80;99.90
47857;DHT22;33618;49.972;8.242;2023-05-13T04:49:34;11.80;99.90
47857;DHT22;33618;49.972;8.242;2023-05-13T04:52:02;11.80;99.90
47857;DHT22;33618;49.972;8.242;2023-05-13T04:54:29;11.80;99.90
47857;DHT22;33618;49.972;8.242;2023-05-13T04:56:56;11.90;99.90
47857;DHT22;33618;49.972;8.242;2023-05-13T04:59:23;11.90;99.90
47857;DHT22;33618;49.972;8.242;2023-05-13T05:01:50;11.80;99.90
47857;DHT22;33618;49.972;8.242;2023-05-13T05:04:17;11.90;99.90
47857;DHT22;33618;49.972;8.242;2023-05-13T05:06:44;12.00;99.90
47857;DHT22;33618;49.972;8.242;2023-05-13T05:09:10;12.00;99.90
47857;DHT22;33618;49.972;8.242;2023-05-13T05:11:37;12.00;99.90
47857;DHT22;33618;49.972;8.242;2023-05-13T05:14:04;12.10;99.90
47857;DHT22;33618;49.972;8.242;2023-05-13T05:16:31;12.10;99.90
47857;DHT22;33618;49.972;8.242;2023-05-13T05:18:58;12.10;99.90
47857;DHT22;33618;49.972;8.242;2023-05-13T05:21:25;12.20;99.90
47857;DHT22;33618;49.972;8.242;2023-05-13T05:23:52;12.30;99.90
47857;DHT22;33618;49.972;8.242;2023-05-13T05:26:19;12.30;99.90
47857;DHT22;33618;49.972;8.242;2023-05-13T05:28:46;12.50;99.90
47857;DHT22;33618;49.972;8.242;2023-05-13T05:31:13;12.60;99.90
47857;DHT22;33618;49.972;8.242;2023-05-13T05:33:40;12.60;99.90
47857;DHT22;33618;49.972;8.242;2023-05-13T05:36:08;12.80;99.90
47857;DHT22;33618;49.972;8.242;2023-05-13T05:38:35;12.90;99.90
47857;DHT22;33618;49.972;8.242;2023-05-13T05:41:02;13.00;99.90
47857;DHT22;33618;49.972;8.242;2023-05-13T05:43:29;13.00;99.90
47857;DHT22;33618;49.972;8.242;2023-05-13T05:45:56;13.10;99.90
47857;DHT22;33618;49.972;8.242;2023-05-13T05:48:23;13.20;99.90
47857;DHT22;33618;49.972;8.242;2023-05-13T05:50:50;13.30;99.90
47857;DHT22;33618;49.972;8.242;2023-05-13T05:53:17;13.40;99.90
47857;DHT22;33618;49.972;8.242;2023-05-13T05:55:44;13.50;99.90
47857;DHT22;33618;49.972;8.242;2023-05-13T05:58:14;13.60;99.90
47857;DHT22;33618;49.972;8.242;2023-05-13T06:00:42;13.70;99.90
47857;DHT22;33618;49.972;8.242;2023-05-13T06:03:08;13.80;99.90
47857;DHT22;33618;49.972;8.242;2023-05-13T06:05:37;13.80;99.90
47857;DHT22;33618;49.972;8.242;2023-05-13T06:08:05;13.90;99.90
47857;DHT22;33618;49.972;8.242;2023-05-13T06:10:32;14.00;99.90
47857;DHT22;33618;49.972;8.242;2023-05-13T06:12:58;14.10;99.90
47857;DHT22;33618;49.972;8.242;2023-05-13T06:15:25;14.20;99.90
47857;DHT22;33618;49.972;8.242;2023-05-13T06:17:52;14.30;99.90
47857;DHT22;33618;49.972;8.242;2023-05-13T06:20:19;14.30;99.90
47857;DHT22;33618;49.972;8.242;2023-05-13T06:22:46;14.40;99.90
47857;DHT22;33618;49.972;8.242;2023-05-13T06:25:13;14.50;99.90
47857;DHT22;33618;49.972;8.242;2023-05-13T06:27:40;14.60;99.90
47857;DHT22;33618;49.972;8.242;2023-05-13T06:30:07;14.60;99.90
47857;DHT22;33618;49.972;8.242;2023-05-13T06:32:34;14.80;99.90
47857;DHT22;33618;49.972;8.242;2023-05-13T06:35:02;14.80;99.90
47857;DHT22;33618;49.972;8.242;2023-05-13T06:37:30;14.90;99.90
47857;DHT22;33618;49.972;8.242;2023-05-13T06:40:00;14.90;99.90
47857;DHT22;33618;49.972;8.242;2023-05-13T06:42:27;15.00;99.90
47857;DHT22;33618;49.972;8.242;2023-05-13T06:44:54;15.10;99.90
47857;DHT22;33618;49.972;8.242;2023-05-13T06:47:21;15.20;99.90
47857;DHT22;33618;49.972;8.242;2023-05-13T06:49:49;15.20;99.90
47857;DHT22;33618;49.972;8.242;2023-05-13T06:52:16;15.30;99.90
47857;DHT22;33618;49.972;8.242;2023-05-13T06:54:43;15.40;99.90
47857;DHT22;33618;49.972;8.242;2023-05-13T06:57:10;15.50;99.90
47857;DHT22;33618;49.972;8.242;2023-05-13T06:59:37;15.60;99.90
47857;DHT22;33618;49.972;8.242;2023-05-13T07:02:04;15.60;99.90
47857;DHT22;33618;49.972;8.242;2023-05-13T07:04:36;15.70;99.90
47857;DHT22;33618;49.972;8.242;2023-05-13T07:07:04;15.80;99.90
47857;DHT22;33618;49.972;8.242;2023-05-13T07:09:40;16.00;99.90
47857;DHT22;33618;49.972;8.242;2023-05-13T07:12:07;16.00;99.90
47857;DHT22;33618;49.972;8.242;2023-05-13T07:14:42;16.20;99.90
47857;DHT22;33618;49.972;8.242;2023-05-13T07:17:10;16.30;99.90
47857;DHT22;33618;49.972;8.242;2023-05-13T07:19:37;16.50;99.90
47857;DHT22;33618;49.972;8.242;2023-05-13T07:22:05;16.70;99.90
47857;DHT22;33618;49.972;8.242;2023-05-13T07:24:35;16.80;99.90
47857;DHT22;33618;49.972;8.242;2023-05-13T07:27:02;16.90;99.90
47857;DHT22;33618;49.972;8.242;2023-05-13T07:29:30;16.90;98.80
47857;DHT22;33618;49.972;8.242;2023-05-13T07:32:03;16.90;99.40
47857;DHT22;33618;49.972;8.242;2023-05-13T07:34:31;17.00;98.70
47857;DHT22;33618;49.972;8.242;2023-05-13T07:36:58;17.00;97.10
47857;DHT22;33618;49.972;8.242;2023-05-13T07:39:25;16.90;97.70
47857;DHT22;33618;49.972;8.242;2023-05-13T07:41:52;17.00;97.70
47857;DHT22;33618;49.972;8.242;2023-05-13T07:44:22;16.90;97.60
47857;DHT22;33618;49.972;8.242;2023-05-13T07:46:49;16.90;98.80
47857;DHT22;33618;49.972;8.242;2023-05-13T07:49:20;16.90;98.60
47857;DHT22;33618;49.972;8.242;2023-05-13T07:51:46;16.90;99.00
47857;DHT22;33618;49.972;8.242;2023-05-13T07:54:13;16.90;99.50
47857;DHT22;33618;49.972;8.242;2023-05-13T07:56:47;16.90;98.90
47857;DHT22;33618;49.972;8.242;2023-05-13T07:59:13;17.00;99.10
47857;DHT22;33618;49.972;8.242;2023-05-13T08:01:41;16.90;99.00
47857;DHT22;33618;49.972;8.242;2023-05-13T08:04:08;16.90;99.60
47857;DHT22;33618;49.972;8.242;2023-05-13T08:06:39;16.90;98.90
47857;DHT22;33618;49.972;8.242;2023-05-13T08:09:06;16.90;99.50
47857;DHT22;33618;49.972;8.242;2023-05-13T08:11:37;17.00;99.30
47857;DHT22;33618;49.972;8.242;2023-05-13T08:14:04;17.10;99.20
47857;DHT22;33618;49.972;8.242;2023-05-13T08:16:34;17.20;98.60
47857;DHT22;33618;49.972;8.242;2023-05-13T08:19:04;17.30;97.60
47857;DHT22;33618;49.972;8.242;2023-05-13T08:21:31;17.30;97.10
47857;DHT22;33618;49.972;8.242;2023-05-13T08:23:58;17.40;97.70
47857;DHT22;33618;49.972;8.242;2023-05-13T08:26:25;17.30;98.20
47857;DHT22;33618;49.972;8.242;2023-05-13T08:28:52;17.40;98.50
47857;DHT22;33618;49.972;8.242;2023-05-13T08:31:20;17.40;97.20
47857;DHT22;33618;49.972;8.242;2023-05-13T08:33:50;17.50;96.90
47857;DHT22;33618;49.972;8.242;2023-05-13T08:36:19;17.50;97.40
47857;DHT22;33618;49.972;8.242;2023-05-13T08:38:47;17.50;96.40
47857;DHT22;33618;49.972;8.242;2023-05-13T08:41:15;17.60;96.80
47857;DHT22;33618;49.972;8.242;2023-05-13T08:43:42;17.70;96.30
47857;DHT22;33618;49.972;8.242;2023-05-13T08:46:10;17.70;94.30
47857;DHT22;33618;49.972;8.242;2023-05-13T08:48:38;17.80;95.60
47857;DHT22;33618;49.972;8.242;2023-05-13T08:51:07;18.00;94.80
47857;DHT22;33618;49.972;8.242;2023-05-13T08:53:35;18.20;93.70
47857;DHT22;33618;49.972;8.242;2023-05-13T08:56:05;18.40;93.70
47857;DHT22;33618;49.972;8.242;2023-05-13T08:58:33;18.70;92.80
47857;DHT22;33618;49.972;8.242;2023-05-13T09:01:01;18.90;92.00
47857;DHT22;33618;49.972;8.242;2023-05-13T09:03:28;19.20;91.60
47857;DHT22;33618;49.972;8.242;2023-05-13T09:05:55;19.40;91.10
47857;DHT22;33618;49.972;8.242;2023-05-13T09:08:25;19.70;90.50
47857;DHT22;33618;49.972;8.242;2023-05-13T09:10:52;19.70;89.50
47857;DHT22;33618;49.972;8.242;2023-05-13T09:13:20;20.10;89.50
47857;DHT22;33618;49.972;8.242;2023-05-13T09:15:49;20.50;89.60
47857;DHT22;33618;49.972;8.242;2023-05-13T09:18:16;20.80;88.10
47857;DHT22;33618;49.972;8.242;2023-05-13T09:20:45;21.10;87.90
47857;DHT22;33618;49.972;8.242;2023-05-13T09:23:12;21.50;87.90
47857;DHT22;33618;49.972;8.242;2023-05-13T09:25:39;22.10;85.20
47857;DHT22;33618;49.972;8.242;2023-05-13T09:28:06;22.80;83.40
47857;DHT22;33618;49.972;8.242;2023-05-13T09:30:35;23.40;84.10
47857;DHT22;33618;49.972;8.242;2023-05-13T09:33:06;23.90;81.70
47857;DHT22;33618;49.972;8.242;2023-05-13T09:35:39;24.40;81.80
47857;DHT22;33618;49.972;8.242;2023-05-13T09:38:13;24.80;81.40
47857;DHT22;33618;49.972;8.242;2023-05-13T09:40:48;25.30;80.40
47857;DHT22;33618;49.972;8.242;2023-05-13T09:43:15;25.70;79.00
47857;DHT22;33618;49.972;8.242;2023-05-13T09:45:42;25.90;78.90
47857;DHT22;33618;49.972;8.242;2023-05-13T09:48:09;26.10;76.40
47857;DHT22;33618;49.972;8.242;2023-05-13T09:50:46;25.80;76.70
47857;DHT22;33618;49.972;8.242;2023-05-13T09:53:14;26.00;77.40
47857;DHT22;33618;49.972;8.242;2023-05-13T09:55:48;26.00;77.10
47857;DHT22;33618;49.972;8.242;2023-05-13T09:58:15;26.10;77.60
47857;DHT22;33618;49.972;8.242;2023-05-13T10:00:42;26.50;76.00
47857;DHT22;33618;49.972;8.242;2023-05-13T10:03:10;26.70;74.50
47857;DHT22;33618;49.972;8.242;2023-05-13T10:05:38;26.80;74.90
47857;DHT22;33618;49.972;8.242;2023-05-13T10:08:08;26.70;73.50
47857;DHT22;33618;49.972;8.242;2023-05-13T10:10:37;26.60;74.40
47857;DHT22;33618;49.972;8.242;2023-05-13T10:13:08;26.60;75.60
47857;DHT22;33618;49.972;8.242;2023-05-13T10:15:47;26.90;73.70
47857;DHT22;33618;49.972;8.242;2023-05-13T10:18:15;27.20;73.00
47857;DHT22;33618;49.972;8.242;2023-05-13T10:20:44;27.40;72.40
47857;DHT22;33618;49.972;8.242;2023-05-13T10:23:11;27.30;70.80
47857;DHT22;33618;49.972;8.242;2023-05-13T10:25:39;27.20;72.40
47857;DHT22;33618;49.972;8.242;2023-05-13T10:28:07;27.30;72.90
47857;DHT22;33618;49.972;8.242;2023-05-13T10:30:35;27.40;71.30
47857;DHT22;33618;49.972;8.242;2023-05-13T10:33:03;27.20;70.50
47857;DHT22;33618;49.972;8.242;2023-05-13T10:35:36;27.10;71.10
47857;DHT22;33618;49.972;8.242;2023-05-13T10:42:07;27.50;71.40
47857;DHT22;33618;49.972;8.242;2023-05-13T10:44:40;27.60;70.00
47857;DHT22;33618;49.972;8.242;2023-05-13T10:47:08;27.70;70.30
47857;DHT22;33618;49.972;8.242;2023-05-13T10:49:35;27.70;70.30
47857;DHT22;33618;49.972;8.242;2023-05-13T10:52:04;26.90;69.70
47857;DHT22;33618;49.972;8.242;2023-05-13T10:54:38;26.60;70.20
47857;DHT22;33618;49.972;8.242;2023-05-13T10:57:07;26.60;69.90
47857;DHT22;33618;49.972;8.242;2023-05-13T10:59:34;26.40;70.70
47857;DHT22;33618;49.972;8.242;2023-05-13T11:02:22;26.80;71.00
47857;DHT22;33618;49.972;8.242;2023-05-13T11:04:59;27.20;70.10
47857;DHT22;33618;49.972;8.242;2023-05-13T11:07:29;27.00;69.90
47857;DHT22;33618;49.972;8.242;2023-05-13T11:09:58;26.80;69.80
47857;DHT22;33618;49.972;8.242;2023-05-13T11:12:25;26.90;69.60
47857;DHT22;33618;49.972;8.242;2023-05-13T11:14:55;26.90;70.40
47857;DHT22;33618;49.972;8.242;2023-05-13T11:17:22;27.10;69.60
47857;DHT22;33618;49.972;8.242;2023-05-13T11:19:49;27.30;69.50
47857;DHT22;33618;49.972;8.242;2023-05-13T11:24:45;27.60;68.80
47857;DHT22;33618;49.972;8.242;2023-05-13T11:27:13;27.60;68.40
47857;DHT22;33618;49.972;8.242;2023-05-13T11:29:51;27.10;67.70
47857;DHT22;33618;49.972;8.242;2023-05-13T11:35:09;26.20;69.10
47857;DHT22;33618;49.972;8.242;2023-05-13T11:37:41;25.90;69.10
47857;DHT22;33618;49.972;8.242;2023-05-13T11:40:09;25.40;68.70
47857;DHT22;33618;49.972;8.242;2023-05-13T11:42:38;25.20;68.60
47857;DHT22;33618;49.972;8.242;2023-05-13T11:45:06;24.90;68.60
47857;DHT22;33618;49.972;8.242;2023-05-13T11:47:33;24.60;69.20
47857;DHT22;33618;49.972;8.242;2023-05-13T11:50:00;24.40;70.20
47857;DHT22;33618;49.972;8.242;2023-05-13T11:52:27;24.40;70.00
47857;DHT22;33618;49.972;8.242;2023-05-13T11:54:56;24.30;70.60
47857;DHT22;33618;49.972;8.242;2023-05-13T11:57:25;24.30;71.00
47857;DHT22;33618;49.972;8.242;2023-05-13T12:00:03;24.20;72.00
47857;DHT22;33618;49.972;8.242;2023-05-13T12:02:35;24.10;71.90
47857;DHT22;33618;49.972;8.242;2023-05-13T12:05:05;24.10;71.20
47857;DHT22;33618;49.972;8.242;2023-05-13T12:07:33;24.10;72.00
47857;DHT22;33618;49.972;8.242;2023-05-13T12:10:02;24.00;71.60
47857;DHT22;33618;49.972;8.242;2023-05-13T12:12:30;23.80;71.20
47857;DHT22;33618;49.972;8.242;2023-05-13T12:15:00;23.30;75.10
47857;DHT22;33618;49.972;8.242;2023-05-13T12:17:28;22.20;90.20
47857;DHT22;33618;49.972;8.242;2023-05-13T12:23:04;20.10;98.50
47857;DHT22;33618;49.972;8.242;2023-05-13T12:25:46;19.80;99.90
47857;DHT22;33618;49.972;8.242;2023-05-13T12:30:52;20.00;99.90
47857;DHT22;33618;49.972;8.242;2023-05-13T12:33:24;20.60;99.90
47857;DHT22;33618;49.972;8.242;2023-05-13T12:36:22;20.90;97.20
47857;DHT22;33618;49.972;8.242;2023-05-13T12:39:01;21.20;96.90
47857;DHT22;33618;49.972;8.242;2023-05-13T12:44:14;22.70;88.00
47857;DHT22;33618;49.972;8.242;2023-05-13T12:47:02;23.30;87.50
47857;DHT22;33618;49.972;8.242;2023-05-13T12:49:29;23.50;85.60
47857;DHT22;33618;49.972;8.242;2023-05-13T12:51:56;23.50;86.10
47857;DHT22;33618;49.972;8.242;2023-05-13T12:54:23;23.40;84.00
47857;DHT22;33618;49.972;8.242;2023-05-13T12:56:50;23.30;82.20
47857;DHT22;33618;49.972;8.242;2023-05-13T12:59:17;23.20;82.90
47857;DHT22;33618;49.972;8.242;2023-05-13T13:01:44;23.10;83.80
47857;DHT22;33618;49.972;8.242;2023-05-13T13:04:15;23.00;86.00
47857;DHT22;33618;49.972;8.242;2023-05-13T13:06:43;22.90;84.40
47857;DHT22;33618;49.972;8.242;2023-05-13T13:09:09;22.70;85.80
47857;DHT22;33618;49.972;8.242;2023-05-13T13:11:36;22.50;85.60
47857;DHT22;33618;49.972;8.242;2023-05-13T13:14:04;22.30;84.70
47857;DHT22;33618;49.972;8.242;2023-05-13T13:16:31;22.10;86.70
47857;DHT22;33618;49.972;8.242;2023-05-13T13:18:58;22.00;88.70
47857;DHT22;33618;49.972;8.242;2023-05-13T13:21:27;22.00;87.90
47857;DHT22;33618;49.972;8.242;2023-05-13T13:23:54;21.80;86.80
47857;DHT22;33618;49.972;8.242;2023-05-13T13:26:21;21.70;88.30
47857;DHT22;33618;49.972;8.242;2023-05-13T13:28:48;21.60;88.70
47857;DHT22;33618;49.972;8.242;2023-05-13T13:31:15;21.50;86.70
47857;DHT22;33618;49.972;8.242;2023-05-13T13:33:42;21.40;87.70
47857;DHT22;33618;49.972;8.242;2023-05-13T13:36:09;21.30;86.60
47857;DHT22;33618;49.972;8.242;2023-05-13T13:38:36;21.10;86.30
47857;DHT22;33618;49.972;8.242;2023-05-13T13:41:02;20.80;85.50
47857;DHT22;33618;49.972;8.242;2023-05-13T13:43:29;20.60;85.50
47857;DHT22;33618;49.972;8.242;2023-05-13T13:45:56;20.40;86.30
47857;DHT22;33618;49.972;8.242;2023-05-13T13:48:23;20.40;86.90
47857;DHT22;33618;49.972;8.242;2023-05-13T13:50:50;20.60;85.30
47857;DHT22;33618;49.972;8.242;2023-05-13T13:53:18;21.50;85.30
47857;DHT22;33618;49.972;8.242;2023-05-13T13:55:45;22.50;82.10
47857;DHT22;33618;49.972;8.242;2023-05-13T13:58:12;22.90;80.60
47857;DHT22;33618;49.972;8.242;2023-05-13T14:00:40;22.90;78.90
47857;DHT22;33618;49.972;8.242;2023-05-13T14:03:06;22.80;78.80
47857;DHT22;33618;49.972;8.242;2023-05-13T14:05:33;22.70;77.90
47857;DHT22;33618;49.972;8.242;2023-05-13T14:08:00;22.60;78.60
47857;DHT22;33618;49.972;8.242;2023-05-13T14:10:27;22.70;79.00
47857;DHT22;33618;49.972;8.242;2023-05-13T14:12:54;22.70;78.40
47857;DHT22;33618;49.972;8.242;2023-05-13T14:15:21;22.90;80.20
47857;DHT22;33618;49.972;8.242;2023-05-13T14:17:47;22.80;77.80
47857;DHT22;33618;49.972;8.242;2023-05-13T14:20:14;22.90;76.90
47857;DHT22;33618;49.972;8.242;2023-05-13T14:22:41;22.90;76.00
47857;DHT22;33618;49.972;8.242;2023-05-13T14:25:08;22.80;77.20
47857;DHT22;33618;49.972;8.242;2023-05-13T14:27:35;22.90;75.40
47857;DHT22;33618;49.972;8.242;2023-05-13T14:30:03;22.90;75.40
47857;DHT22;33618;49.972;8.242;2023-05-13T14:32:30;22.90;76.20
47857;DHT22;33618;49.972;8.242;2023-05-13T14:34:57;22.80;76.50
47857;DHT22;33618;49.972;8.242;2023-05-13T14:37:24;22.90;75.80
47857;DHT22;33618;49.972;8.242;2023-05-13T14:39:51;23.00;75.20
47857;DHT22;33618;49.972;8.242;2023-05-13T14:42:18;23.00;75.40
47857;DHT22;33618;49.972;8.242;2023-05-13T14:44:45;23.10;75.30
47857;DHT22;33618;49.972;8.242;2023-05-13T14:47:11;23.10;75.50
47857;DHT22;33618;49.972;8.242;2023-05-13T14:49:38;22.90;75.80
47857;DHT22;33618;49.972;8.242;2023-05-13T14:52:05;23.00;76.50
47857;DHT22;33618;49.972;8.242;2023-05-13T14:54:33;22.80;75.10
47857;DHT22;33618;49.972;8.242;2023-05-13T14:57:05;22.70;75.10
47857;DHT22;33618;49.972;8.242;2023-05-13T14:59:33;22.60;75.00
47857;DHT22;33618;49.972;8.242;2023-05-13T15:02:01;22.40;74.70
47857;DHT22;33618;49.972;8.242;2023-05-13T15:04:28;22.10;73.30
47857;DHT22;33618;49.972;8.242;2023-05-13T15:06:55;22.10;75.00
47857;DHT22;33618;49.972;8.242;2023-05-13T15:09:22;22.10;75.40
47857;DHT22;33618;49.972;8.242;2023-05-13T15:11:49;22.00;76.40
47857;DHT22;33618;49.972;8.242;2023-05-13T15:14:16;22.00;75.40
47857;DHT22;33618;49.972;8.242;2023-05-13T15:16:43;21.90;75.30
47857;DHT22;33618;49.972;8.242;2023-05-13T15:19:10;21.90;76.00
47857;DHT22;33618;49.972;8.242;2023-05-13T15:21:37;22.00;76.30
47857;DHT22;33618;49.972;8.242;2023-05-13T15:24:04;22.00;76.40
47857;DHT22;33618;49.972;8.242;2023-05-13T15:26:31;22.10;74.90
47857;DHT22;33618;49.972;8.242;2023-05-13T15:28:58;22.40;74.40
47857;DHT22;33618;49.972;8.242;2023-05-13T15:31:25;23.10;75.40
47857;DHT22;33618;49.972;8.242;2023-05-13T15:33:52;23.60;73.40
47857;DHT22;33618;49.972;8.242;2023-05-13T15:36:19;24.10;72.80
47857;DHT22;33618;49.972;8.242;2023-05-13T15:38:46;24.40;71.90
47857;DHT22;33618;49.972;8.242;2023-05-13T15:41:13;24.60;71.70
47857;DHT22;33618;49.972;8.242;2023-05-13T15:43:40;24.70;71.60
47857;DHT22;33618;49.972;8.242;2023-05-13T15:46:07;24.80;70.90
47857;DHT22;33618;49.972;8.242;2023-05-13T15:48:34;25.10;69.60
47857;DHT22;33618;49.972;8.242;2023-05-13T15:51:02;25.60;70.20
47857;DHT22;33618;49.972;8.242;2023-05-13T15:53:29;26.10;69.30
47857;DHT22;33618;49.972;8.242;2023-05-13T15:55:56;26.60;68.80
47857;DHT22;33618;49.972;8.242;2023-05-13T15:58:23;26.90;68.40
47857;DHT22;33618;49.972;8.242;2023-05-13T16:00:49;27.40;68.10
47857;DHT22;33618;49.972;8.242;2023-05-13T16:03:16;27.60;67.50